Woodstock, GA

34° 08' 01"N, 84° 28' 00"W, Elevation 900 ft.
Eastern Time

Hourly observations for the last 72 hours

Date Time Temperature (F) Humi-
dity

(%)
Wind
(mph)
Pressure Rain (in) Sun
(W/m2)
ET
(in)
Air Dew 6 Hour 1 Hr 3 Hr 6 Hr Day
Alt
(in)
Sea
Level

(mb)
Max Min
30 10:00 71.3 66.9 86 SW 0 G 2 30.07 1018.3 0.00 83 0.006
30 09:00 70.1 66.7 89 SE 1 G 4 30.02 1016.7 0.00 162 0.003
30 08:00 69.3 65.9 70.2 67.5 89 SE 0 G 6 29.99 1015.7 0.00 49 0.001
30 07:00 69.2 66.1 90 SE 0 G 3 30.00 1015.9 0.00 9 0.000
30 06:00 69.9 67.2 91 ENE 2 G 4 30.00 1016.0 0.00 0 0.000
30 05:00 69.9 67.2 91 E 0 G 4 30.00 1015.8 0.00 0 0.000
30 04:00 69.9 67.2 91 E 0 G 3 30.00 1016.1 0.00 0 0.000
30 03:00 67.9 65.8 93 N 0 G 2 30.02 1016.5 0.00 0 0.000
30 02:00 68.0 65.6 81.7 68.0 92 Calm 30.02 1016.7 0.00 0 0.000
30 01:00 70.0 66.6 89 Calm 30.03 1017.0 0.00 0 0.000
30 00:00 72.3 67.9 86 Calm 30.04 1017.2 0.00 0 0.000
29 23:00 74.5 68.6 82 ENE 0 G 3 30.04 1017.2 0.00 0 0.122
29 22:00 76.9 69.1 77 Calm 30.03 1017.0 0.00 0 0.121
29 21:00 78.9 69.5 73 ESE 0 G 1 30.02 1016.8 0.00 0 0.120
29 20:00 81.7 70.1 86.9 81.7 68 E 0 G 4 30.00 1016.0 0.00 23 0.120
29 19:00 83.0 70.5 66 WSW 1 G 7 29.99 1015.7 0.00 98 0.118
29 18:00 83.4 71.3 67 WNW 0 G 2 29.99 1015.7 0.00 134 0.114
29 17:00 84.5 71.5 65 S 0 G 4 30.00 1016.0 0.00 239 0.109
29 16:00 85.6 71.1 62 ENE 2 G 5 30.02 1016.6 0.00 218 0.103
29 15:00 85.9 72.3 64 ENE 1 G 5 30.05 1017.8 0.00 1009 0.086
29 14:00 84.5 71.9 85.1 63.9 66 S 1 G 4 30.06 1018.1 0.00 323 0.073
29 13:00 84.1 70.6 64 SSE 1 G 4 30.09 1018.9 0.00 1253 0.056
29 12:00 82.1 71.4 70 SSE 0 G 3 30.10 1019.3 0.00 538 0.039
29 11:00 79.1 68.9 71 S 1 G 4 30.10 1019.3 0.00 334 0.024
29 10:00 76.8 70.9 82 NE 1 G 6 30.09 1019.1 0.00 643 0.014
29 09:00 69.1 67.9 96 ESE 0 G 2 30.10 1019.3 0.00 323 0.004
29 08:00 63.9 62.4 66.7 62.9 95 Calm 30.10 1019.2 0.00 47 0.001
29 07:00 62.9 61.4 95 Calm 30.08 1018.5 0.00 7 0.000
29 06:00 63.4 61.6 94 Calm 30.05 1017.5 0.00 0 0.000
29 05:00 64.3 62.5 94 Calm 30.01 1016.3 0.00 0 0.000
29 04:00 65.7 63.9 94 Calm 30.00 1015.8 0.00 0 0.000
29 03:00 66.4 64.3 93 Calm 30.01 1016.4 0.00 0 0.000
29 02:00 66.6 64.5 79.8 66.6 93 Calm 30.04 1017.2 0.00 0 0.000
29 01:00 67.9 65.5 92 Calm 30.04 1017.4 0.00 0 0.000
29 00:00 68.7 65.7 90 Calm 30.04 1017.2 0.00 0 0.000
28 23:00 70.3 66.6 88 Calm 30.04 1017.2 0.00 0 0.133
28 22:00 72.5 67.4 84 Calm 30.02 1016.7 0.00 0 0.132
28 21:00 75.8 68.5 78 Calm 30.00 1015.9 0.00 0 0.131
28 20:00 79.8 68.3 85.2 79.8 68 SW 0 G 2 29.99 1015.4 0.00 12 0.131
28 19:00 81.6 69.2 66 SSW 0 G 2 29.97 1014.9 0.00 44 0.130
28 18:00 82.5 68.7 63 S 0 G 2 29.97 1014.8 0.00 51 0.127
28 17:00 83.6 68.7 61 S 2 G 6 29.96 1014.5 0.00 195 0.120
28 16:00 84.5 69.1 60 S 2 G 7 29.96 1014.7 0.00 534 0.111
28 15:00 83.6 68.7 61 S 1 G 5 29.97 1014.9 0.00 953 0.086
28 14:00 82.5 69.6 82.5 64.5 65 SSW 1 G 4 29.98 1015.2 0.00 1222 0.071
28 13:00 80.6 69.1 68 SSW 1 G 3 29.99 1015.5 0.00 315 0.049
28 12:00 78.7 70.1 75 N 0 G 5 29.99 1015.7 0.00 258 0.029
28 11:00 75.5 70.0 83 E 1 G 3 29.99 1015.7 0.00 969 0.014
28 10:00 68.6 66.8 94 NE 0 G 1 29.99 1015.6 0.00 209 0.003
28 09:00 66.5 65.3 96 NNE 0 G 1 29.97 1015.0 0.00 98 0.001
28 08:00 64.5 63.3 64.5 58.2 96 Calm 29.97 1014.8 0.00 26 0.000
28 07:00 63.5 62.0 95 Calm 29.93 1013.7 0.00 5 0.000
28 06:00 62.5 61.0 95 Calm 29.91 1013.0 0.00 0 0.000
28 05:00 61.7 60.3 95 Calm 29.90 1012.5 0.00 0 0.000
28 04:00 60.6 59.2 95 Calm 29.90 1012.5 0.00 0 0.000
28 03:00 59.1 57.7 95 Calm 29.89 1012.1 0.00 0 0.000
28 02:00 58.3 56.6 73.4 58.3 94 Calm 29.89 1012.1 0.00 0 0.000
28 01:00 59.5 57.5 93 Calm 29.87 1011.6 0.00 0 0.000
28 00:00 60.7 58.7 93 Calm 29.87 1011.5 0.01 0 0.000
27 23:00 61.9 59.6 92 NNE 0 G 2 29.85 1010.8 0.01 0 0.064
27 22:00 64.2 60.9 89 Calm 29.82 1009.8 0.01 0 0.064
27 21:00 67.7 62.7 84 Calm 29.80 1009.2 0.01 0 0.064
27 20:00 73.4 65.0 79.1 73.4 75 Calm 29.77 1008.3 0.01 11 0.064
27 19:00 76.7 67.0 72 W 0 G 5 29.77 1008.0 0.01 35 0.063
27 18:00 77.8 68.9 74 W 1 G 8 29.76 1007.7 0.01 102 0.061
27 17:00 77.7 69.5 76 SSW 0 G 3 29.74 1007.2 0.01 49 0.055
27 16:00 78.8 70.6 76 SSW 2 G 8 29.73 1006.7 0.01 353 0.047
27 15:00 77.0 69.6 78 SSW 4 G 8 29.73 1006.9 0.01 406 0.032
27 14:00 75.5 69.3 75.7 65.0 81 SSW 2 G 4 29.74 1007.0 0.01 0.01 0.01 199 0.021
27 13:00 71.3 67.9 89 S 1 G 4 29.76 1007.8 0.01 98 0.010
27 12:00 69.7 66.6 90 S 1 G 4 29.75 1007.5 0.01 0.01 151 0.006
27 11:00 69.0 65.9 90 SSW 2 G 4 29.75 1007.3 0.00 69 0.005

Data generated by WxSolution Version 1.8.7.4, Build 2015.02.27.